WMT3692 EGBB-LROP
Flight info
| Callsign | WMT3692 |
|---|---|
| Flight time | 3h 3m |
| Altitude | 35000 |
| Route | UNGAP P155 SIVDA P137 REDFA DCT TACHA DCT NIGUG DCT HMM DCT EXOBA DCT NOMKA L620 SULED DCT EKPEK L620 OMELO DCT OMIFU/N0450F370 DCT MAKAL DCT PITOK DCT PERIT DCT BADOR DCT DENAK |
| Aircraft | A321/M-SDE3FGHIRWY/LB1 |
Departure
| Time | 2026-05-05 21:07 |
|---|---|
| Airport | Birmingham Airport (EGBB) |
Arrival
| Time | 2026-05-06 00:10 |
|---|---|
| Airport | Bucharest Henri Coandă International Airport (LROP) |
| Time | Latitude | Longitude | Altitude | Speed | Heading |
|---|---|---|---|---|---|
| 2026-05-05 20:45 | 52.45263 | -1.73839 | 320 ft | 0 kts | 136° |
| 2026-05-05 20:57 | 52.45274 | -1.73856 | 322 ft | 3 kts | 136° |
| 2026-05-05 20:58 | 52.45288 | -1.73879 | 321 ft | 3 kts | 136° |
| 2026-05-05 20:58 | 52.45301 | -1.73899 | 322 ft | 3 kts | 141° |
| 2026-05-05 20:58 | 52.45317 | -1.73915 | 322 ft | 3 kts | 172° |
| 2026-05-05 20:58 | 52.45334 | -1.73912 | 323 ft | 3 kts | 212° |
| 2026-05-05 20:59 | 52.45349 | -1.73891 | 321 ft | 3 kts | 236° |
| 2026-05-05 20:59 | 52.45342 | -1.73907 | 322 ft | 3 kts | 236° |
| 2026-05-05 20:59 | 52.45341 | -1.73910 | 323 ft | 0 kts | 236° |
| 2026-05-05 21:02 | 52.45340 | -1.73913 | 323 ft | 2 kts | 236° |
| 2026-05-05 21:02 | 52.45316 | -1.73964 | 323 ft | 7 kts | 224° |
| 2026-05-05 21:02 | 52.45269 | -1.73959 | 323 ft | 8 kts | 149° |
| 2026-05-05 21:02 | 52.45217 | -1.73905 | 323 ft | 10 kts | 146° |
| 2026-05-05 21:03 | 52.45157 | -1.73838 | 323 ft | 11 kts | 146° |
| 2026-05-05 21:03 | 52.45085 | -1.73768 | 323 ft | 13 kts | 161° |
| 2026-05-05 21:03 | 52.44997 | -1.73703 | 323 ft | 15 kts | 147° |
| 2026-05-05 21:03 | 52.44908 | -1.73647 | 323 ft | 14 kts | 188° |
| 2026-05-05 21:04 | 52.44820 | -1.73688 | 323 ft | 13 kts | 196° |
| 2026-05-05 21:04 | 52.44746 | -1.73731 | 323 ft | 7 kts | 214° |
| 2026-05-05 21:04 | 52.44713 | -1.73793 | 325 ft | 7 kts | 234° |
| 2026-05-05 21:04 | 52.44679 | -1.73875 | 323 ft | 9 kts | 236° |
| 2026-05-05 21:05 | 52.44654 | -1.73962 | 324 ft | 7 kts | 283° |
| 2026-05-05 21:05 | 52.44682 | -1.74019 | 323 ft | 4 kts | 326° |
| 2026-05-05 21:05 | 52.44683 | -1.74019 | 323 ft | 0 kts | 326° |
| 2026-05-05 21:06 | 52.44776 | -1.74124 | 323 ft | 50 kts | 326° |
| 2026-05-05 21:06 | 52.45275 | -1.74678 | 323 ft | 121 kts | 326° |
| 2026-05-05 21:07 | 52.46109 | -1.75612 | 551 ft | 153 kts | 325° |
| 2026-05-05 21:07 | 52.46949 | -1.76569 | 1329 ft | 146 kts | 326° |
| 2026-05-05 21:07 | 52.47797 | -1.77506 | 1998 ft | 148 kts | 326° |
| 2026-05-05 21:07 | 52.48681 | -1.78461 | 2422 ft | 161 kts | 327° |
| 2026-05-05 21:08 | 52.49658 | -1.79542 | 2685 ft | 183 kts | 327° |
| 2026-05-05 21:08 | 52.50922 | -1.80283 | 2909 ft | 207 kts | 356° |
| 2026-05-05 21:08 | 52.52375 | -1.79769 | 3195 ft | 225 kts | 30° |
| 2026-05-05 21:08 | 52.53457 | -1.77937 | 3826 ft | 228 kts | 63° |
| 2026-05-05 21:09 | 52.53830 | -1.75421 | 4503 ft | 229 kts | 86° |
| 2026-05-05 21:09 | 52.53695 | -1.72817 | 5169 ft | 231 kts | 102° |
| 2026-05-05 21:09 | 52.53350 | -1.70235 | 5833 ft | 233 kts | 102° |
| 2026-05-05 21:09 | 52.52900 | -1.67676 | 6465 ft | 235 kts | 116° |
| 2026-05-05 21:10 | 52.51936 | -1.65500 | 6902 ft | 247 kts | 135° |
| 2026-05-05 21:10 | 52.50669 | -1.63456 | 7265 ft | 265 kts | 135° |
| 2026-05-05 21:10 | 52.49332 | -1.61307 | 7933 ft | 272 kts | 135° |
| 2026-05-05 21:10 | 52.47972 | -1.59119 | 8696 ft | 276 kts | 135° |
| 2026-05-05 21:11 | 52.46599 | -1.56906 | 9445 ft | 279 kts | 135° |
| 2026-05-05 21:11 | 52.45184 | -1.54617 | 10160 ft | 295 kts | 135° |
| 2026-05-05 21:11 | 52.43668 | -1.52153 | 10342 ft | 319 kts | 135° |
| 2026-05-05 21:11 | 52.42041 | -1.49508 | 10496 ft | 341 kts | 135° |
| 2026-05-05 21:12 | 52.40332 | -1.46732 | 10816 ft | 356 kts | 135° |
| 2026-05-05 21:12 | 52.38576 | -1.43836 | 11399 ft | 362 kts | 131° |
| 2026-05-05 21:12 | 52.37126 | -1.40442 | 12013 ft | 366 kts | 117° |
| 2026-05-05 21:12 | 52.36200 | -1.36568 | 12723 ft | 367 kts | 104° |
| 2026-05-05 21:13 | 52.35841 | -1.32428 | 13337 ft | 371 kts | 90° |
| 2026-05-05 21:13 | 52.35855 | -1.28194 | 13964 ft | 374 kts | 88° |
| 2026-05-05 21:13 | 52.35881 | -1.23910 | 14572 ft | 377 kts | 89° |
| 2026-05-05 21:13 | 52.35903 | -1.19603 | 15151 ft | 381 kts | 89° |
| 2026-05-05 21:14 | 52.35919 | -1.15238 | 15735 ft | 385 kts | 90° |
| 2026-05-05 21:14 | 52.35929 | -1.10858 | 16365 ft | 387 kts | 90° |
| 2026-05-05 21:14 | 52.35935 | -1.06484 | 16939 ft | 391 kts | 90° |
| 2026-05-05 21:14 | 52.35937 | -1.02016 | 17538 ft | 394 kts | 90° |
| 2026-05-05 21:15 | 52.35939 | -0.97521 | 18166 ft | 397 kts | 91° |
| 2026-05-05 21:15 | 52.35942 | -0.93001 | 18695 ft | 400 kts | 91° |
| 2026-05-05 21:15 | 52.35946 | -0.88439 | 19218 ft | 403 kts | 91° |
| 2026-05-05 21:15 | 52.35947 | -0.83834 | 19745 ft | 406 kts | 91° |
| 2026-05-05 21:16 | 52.35942 | -0.79201 | 20254 ft | 409 kts | 91° |
| 2026-05-05 21:16 | 52.35933 | -0.74529 | 20787 ft | 412 kts | 91° |
| 2026-05-05 21:16 | 52.35924 | -0.69880 | 21302 ft | 415 kts | 91° |
| 2026-05-05 21:16 | 52.35915 | -0.65143 | 21812 ft | 419 kts | 91° |
| 2026-05-05 21:17 | 52.35906 | -0.60356 | 22295 ft | 422 kts | 91° |
| 2026-05-05 21:17 | 52.35897 | -0.55541 | 22755 ft | 425 kts | 91° |
| 2026-05-05 21:17 | 52.35885 | -0.50683 | 23221 ft | 429 kts | 91° |
| 2026-05-05 21:17 | 52.35869 | -0.45783 | 23660 ft | 432 kts | 91° |
| 2026-05-05 21:18 | 52.35848 | -0.40857 | 24042 ft | 435 kts | 91° |
| 2026-05-05 21:18 | 52.35827 | -0.35901 | 24439 ft | 437 kts | 91° |
| 2026-05-05 21:18 | 52.35804 | -0.30907 | 24832 ft | 440 kts | 91° |
| 2026-05-05 21:18 | 52.35779 | -0.25967 | 25213 ft | 442 kts | 92° |
| 2026-05-05 21:19 | 52.35752 | -0.20927 | 25597 ft | 444 kts | 92° |
| 2026-05-05 21:19 | 52.35723 | -0.15861 | 25973 ft | 447 kts | 92° |
| 2026-05-05 21:19 | 52.35694 | -0.10765 | 26351 ft | 449 kts | 92° |
| 2026-05-05 21:19 | 52.35661 | -0.05646 | 26722 ft | 451 kts | 92° |
| 2026-05-05 21:20 | 52.35626 | -0.00508 | 27090 ft | 453 kts | 92° |
| 2026-05-05 21:20 | 52.35458 | 0.04644 | 27464 ft | 453 kts | 99° |
| 2026-05-05 21:20 | 52.35013 | 0.09754 | 27837 ft | 455 kts | 101° |
| 2026-05-05 21:20 | 52.34556 | 0.14883 | 28190 ft | 457 kts | 101° |
| 2026-05-05 21:21 | 52.34102 | 0.19962 | 28536 ft | 459 kts | 101° |
| 2026-05-05 21:21 | 52.33639 | 0.25129 | 28885 ft | 461 kts | 101° |
| 2026-05-05 21:21 | 52.33174 | 0.30323 | 29220 ft | 463 kts | 101° |
| 2026-05-05 21:21 | 52.32708 | 0.35536 | 29576 ft | 465 kts | 101° |
| 2026-05-05 21:22 | 52.32240 | 0.40765 | 29930 ft | 467 kts | 102° |
| 2026-05-05 21:22 | 52.31764 | 0.46026 | 30242 ft | 469 kts | 102° |
| 2026-05-05 21:22 | 52.31282 | 0.51301 | 30611 ft | 468 kts | 101° |
| 2026-05-05 21:22 | 52.30801 | 0.56550 | 31036 ft | 466 kts | 101° |
| 2026-05-05 21:23 | 52.30327 | 0.61698 | 31454 ft | 464 kts | 101° |
| 2026-05-05 21:23 | 52.29846 | 0.66908 | 31878 ft | 463 kts | 102° |
| 2026-05-05 21:23 | 52.29365 | 0.72093 | 32307 ft | 461 kts | 102° |
| 2026-05-05 21:23 | 52.28882 | 0.77263 | 32721 ft | 459 kts | 102° |
| 2026-05-05 21:24 | 52.28398 | 0.82400 | 33139 ft | 458 kts | 102° |
| 2026-05-05 21:24 | 52.27910 | 0.87536 | 33535 ft | 456 kts | 101° |
| 2026-05-05 21:24 | 52.27423 | 0.92632 | 33988 ft | 453 kts | 101° |
| 2026-05-05 21:24 | 52.26939 | 0.97702 | 34325 ft | 451 kts | 101° |
| 2026-05-05 21:25 | 52.26454 | 1.02764 | 34607 ft | 451 kts | 102° |
| 2026-05-05 21:25 | 52.25975 | 1.07750 | 34876 ft | 451 kts | 102° |
| 2026-05-05 21:25 | 52.25486 | 1.12811 | 34984 ft | 451 kts | 102° |
| 2026-05-05 21:25 | 52.24997 | 1.17862 | 35003 ft | 449 kts | 102° |
| 2026-05-05 21:26 | 52.24016 | 1.27914 | 34997 ft | 448 kts | 102° |
| 2026-05-05 21:26 | 52.23017 | 1.37948 | 34998 ft | 448 kts | 102° |
| 2026-05-05 21:27 | 52.22020 | 1.47915 | 34981 ft | 448 kts | 102° |
| 2026-05-05 21:27 | 52.21018 | 1.57909 | 34989 ft | 446 kts | 102° |
| 2026-05-05 21:28 | 52.20009 | 1.67878 | 34991 ft | 446 kts | 102° |
| 2026-05-05 21:28 | 52.18989 | 1.77847 | 34988 ft | 446 kts | 103° |
| 2026-05-05 21:29 | 52.17956 | 1.87813 | 34986 ft | 446 kts | 103° |
| 2026-05-05 21:29 | 52.16925 | 1.97704 | 34977 ft | 446 kts | 103° |
| 2026-05-05 21:30 | 52.15890 | 2.07635 | 34985 ft | 445 kts | 103° |
| 2026-05-05 21:30 | 52.14836 | 2.17580 | 34984 ft | 445 kts | 103° |
| 2026-05-05 21:31 | 52.13774 | 2.27492 | 34984 ft | 444 kts | 103° |
| 2026-05-05 21:31 | 52.12706 | 2.37335 | 34981 ft | 445 kts | 103° |
| 2026-05-05 21:32 | 52.11992 | 2.47336 | 34972 ft | 449 kts | 91° |
| 2026-05-05 21:32 | 52.13093 | 2.57374 | 34971 ft | 455 kts | 75° |
| 2026-05-05 21:33 | 52.14984 | 2.67199 | 34970 ft | 455 kts | 76° |
| 2026-05-05 21:33 | 52.16837 | 2.76987 | 34971 ft | 455 kts | 76° |
| 2026-05-05 21:34 | 52.18690 | 2.86853 | 34973 ft | 455 kts | 76° |
| 2026-05-05 21:34 | 52.20538 | 2.96728 | 34956 ft | 456 kts | 76° |
| 2026-05-05 21:35 | 52.22381 | 3.06609 | 34967 ft | 456 kts | 76° |
| 2026-05-05 21:35 | 52.24212 | 3.16504 | 34981 ft | 455 kts | 76° |
| 2026-05-05 21:36 | 52.25144 | 3.26536 | 34964 ft | 448 kts | 94° |
| 2026-05-05 21:36 | 52.24416 | 3.36560 | 34955 ft | 445 kts | 102° |
| 2026-05-05 21:37 | 52.23451 | 3.46536 | 34942 ft | 445 kts | 102° |
| 2026-05-05 21:37 | 52.22490 | 3.56507 | 34950 ft | 445 kts | 102° |
| 2026-05-05 21:38 | 52.21523 | 3.66395 | 34959 ft | 444 kts | 102° |
| 2026-05-05 21:38 | 52.20536 | 3.76336 | 34957 ft | 444 kts | 102° |
| 2026-05-05 21:39 | 52.19535 | 3.86275 | 34956 ft | 444 kts | 102° |
| 2026-05-05 21:39 | 52.18527 | 3.96204 | 34944 ft | 444 kts | 102° |
| 2026-05-05 21:40 | 52.17519 | 4.06124 | 34954 ft | 444 kts | 102° |
| 2026-05-05 21:40 | 52.16515 | 4.15967 | 34954 ft | 443 kts | 103° |
| 2026-05-05 21:41 | 52.15488 | 4.25861 | 34955 ft | 443 kts | 103° |
| 2026-05-05 21:41 | 52.14456 | 4.35750 | 34949 ft | 443 kts | 103° |
| 2026-05-05 21:42 | 52.13416 | 4.45630 | 34951 ft | 443 kts | 103° |
| 2026-05-05 21:42 | 52.12368 | 4.55433 | 34942 ft | 443 kts | 103° |
| 2026-05-05 21:43 | 52.11313 | 4.65292 | 34946 ft | 442 kts | 103° |
| 2026-05-05 21:43 | 52.10248 | 4.75155 | 34942 ft | 442 kts | 103° |
| 2026-05-05 21:44 | 52.09174 | 4.85001 | 34941 ft | 442 kts | 103° |
| 2026-05-05 21:44 | 52.08104 | 4.94771 | 34926 ft | 442 kts | 103° |
| 2026-05-05 21:45 | 52.07016 | 5.04596 | 34936 ft | 441 kts | 104° |
| 2026-05-05 21:45 | 52.05924 | 5.14395 | 34936 ft | 441 kts | 104° |
| 2026-05-05 21:46 | 52.04823 | 5.24184 | 34935 ft | 440 kts | 104° |
| 2026-05-05 21:46 | 52.03814 | 5.33997 | 34931 ft | 441 kts | 101° |
| 2026-05-05 21:47 | 52.03178 | 5.43853 | 34923 ft | 442 kts | 98° |
| 2026-05-05 21:47 | 52.02628 | 5.53788 | 34918 ft | 442 kts | 99° |
| 2026-05-05 21:48 | 52.01989 | 5.63694 | 34918 ft | 441 kts | 100° |
| 2026-05-05 21:48 | 52.01283 | 5.73573 | 34909 ft | 440 kts | 100° |
| 2026-05-05 21:49 | 52.00574 | 5.83382 | 34909 ft | 440 kts | 100° |
| 2026-05-05 21:49 | 51.99864 | 5.93245 | 34894 ft | 440 kts | 100° |
| 2026-05-05 21:50 | 51.99148 | 6.03112 | 34894 ft | 440 kts | 101° |
| 2026-05-05 21:50 | 51.98418 | 6.12969 | 34891 ft | 440 kts | 101° |
| 2026-05-05 21:51 | 51.97688 | 6.22753 | 34892 ft | 440 kts | 101° |
| 2026-05-05 21:51 | 51.96952 | 6.32608 | 34891 ft | 440 kts | 101° |
| 2026-05-05 21:52 | 51.95839 | 6.47376 | 34891 ft | 439 kts | 101° |
| 2026-05-05 21:53 | 51.95079 | 6.57192 | 34897 ft | 439 kts | 101° |
| 2026-05-05 21:53 | 51.94311 | 6.66931 | 34893 ft | 438 kts | 101° |
| 2026-05-05 21:54 | 51.93534 | 6.76724 | 34892 ft | 438 kts | 101° |
| 2026-05-05 21:54 | 51.92762 | 6.86509 | 34876 ft | 438 kts | 101° |
| 2026-05-05 21:55 | 51.91979 | 6.96283 | 34889 ft | 437 kts | 102° |
| 2026-05-05 21:55 | 51.91184 | 7.06044 | 34886 ft | 437 kts | 102° |
| 2026-05-05 21:56 | 51.90385 | 7.15719 | 34887 ft | 436 kts | 102° |
| 2026-05-05 21:56 | 51.89575 | 7.25450 | 34882 ft | 436 kts | 102° |
| 2026-05-05 21:57 | 51.88757 | 7.35176 | 34870 ft | 436 kts | 102° |
| 2026-05-05 21:57 | 51.87928 | 7.44886 | 34873 ft | 435 kts | 102° |
| 2026-05-05 21:58 | 51.87104 | 7.54517 | 34873 ft | 435 kts | 102° |
| 2026-05-05 21:58 | 51.86272 | 7.64210 | 34866 ft | 435 kts | 102° |
| 2026-05-05 21:59 | 51.85364 | 7.73865 | 34866 ft | 433 kts | 105° |
| 2026-05-05 21:59 | 51.84061 | 7.83338 | 34858 ft | 431 kts | 108° |
| 2026-05-05 22:00 | 51.82608 | 7.92659 | 34865 ft | 430 kts | 108° |
| 2026-05-05 22:00 | 51.81195 | 8.02048 | 34859 ft | 430 kts | 108° |
| 2026-05-05 22:01 | 51.79838 | 8.11448 | 34855 ft | 429 kts | 108° |
| 2026-05-05 22:01 | 51.78478 | 8.20837 | 34865 ft | 429 kts | 108° |
| 2026-05-05 22:02 | 51.77115 | 8.30149 | 34839 ft | 429 kts | 108° |
| 2026-05-05 22:02 | 51.75759 | 8.39537 | 34843 ft | 430 kts | 107° |
| 2026-05-05 22:03 | 51.74475 | 8.48957 | 34850 ft | 430 kts | 107° |
| 2026-05-05 22:03 | 51.73197 | 8.58371 | 34842 ft | 429 kts | 106° |
| 2026-05-05 22:04 | 51.71892 | 8.67760 | 34848 ft | 429 kts | 107° |
| 2026-05-05 22:04 | 51.70578 | 8.77062 | 34844 ft | 428 kts | 107° |
| 2026-05-05 22:05 | 51.69260 | 8.86402 | 34861 ft | 427 kts | 107° |
| 2026-05-05 22:05 | 51.67937 | 8.95717 | 34858 ft | 426 kts | 107° |
| 2026-05-05 22:06 | 51.66609 | 9.05008 | 34858 ft | 426 kts | 107° |
| 2026-05-05 22:06 | 51.65283 | 9.14233 | 34854 ft | 425 kts | 107° |
| 2026-05-05 22:07 | 51.63943 | 9.23498 | 34850 ft | 425 kts | 107° |
| 2026-05-05 22:07 | 51.62596 | 9.32749 | 34840 ft | 424 kts | 107° |
| 2026-05-05 22:08 | 51.61245 | 9.41989 | 34834 ft | 424 kts | 107° |
| 2026-05-05 22:08 | 51.59883 | 9.51213 | 34830 ft | 424 kts | 107° |
| 2026-05-05 22:09 | 51.58518 | 9.60373 | 34829 ft | 424 kts | 107° |
| 2026-05-05 22:09 | 51.57143 | 9.69594 | 34811 ft | 424 kts | 108° |
| 2026-05-05 22:10 | 51.55762 | 9.78818 | 34825 ft | 425 kts | 108° |
| 2026-05-05 22:10 | 51.54366 | 9.88045 | 34836 ft | 425 kts | 108° |
| 2026-05-05 22:11 | 51.52977 | 9.97207 | 34840 ft | 425 kts | 108° |
| 2026-05-05 22:11 | 51.51576 | 10.06424 | 34838 ft | 425 kts | 108° |
| 2026-05-05 22:12 | 51.50162 | 10.15634 | 34818 ft | 425 kts | 108° |
| 2026-05-05 22:12 | 51.48742 | 10.24831 | 34821 ft | 425 kts | 108° |
| 2026-05-05 22:13 | 51.47320 | 10.33972 | 34827 ft | 425 kts | 108° |
| 2026-05-05 22:13 | 51.45876 | 10.43177 | 34829 ft | 426 kts | 108° |
| 2026-05-05 22:14 | 51.44428 | 10.52377 | 34830 ft | 426 kts | 108° |
| 2026-05-05 22:14 | 51.42982 | 10.61583 | 34819 ft | 426 kts | 108° |
| 2026-05-05 22:15 | 51.41531 | 10.70777 | 34818 ft | 426 kts | 108° |
| 2026-05-05 22:15 | 51.40074 | 10.79914 | 34819 ft | 426 kts | 108° |
| 2026-05-05 22:16 | 51.38592 | 10.89112 | 34824 ft | 427 kts | 108° |
| 2026-05-05 22:16 | 51.37104 | 10.98306 | 34820 ft | 427 kts | 108° |
| 2026-05-05 22:17 | 51.35618 | 11.07499 | 34801 ft | 427 kts | 108° |
| 2026-05-05 22:17 | 51.34134 | 11.16640 | 34813 ft | 428 kts | 109° |
| 2026-05-05 22:18 | 51.32619 | 11.25836 | 34814 ft | 428 kts | 109° |
| 2026-05-05 22:18 | 51.31098 | 11.35033 | 34815 ft | 428 kts | 109° |
| 2026-05-05 22:19 | 51.29590 | 11.44245 | 34815 ft | 428 kts | 109° |
| 2026-05-05 22:19 | 51.28075 | 11.53382 | 34787 ft | 428 kts | 109° |
| 2026-05-05 22:20 | 51.26510 | 11.62574 | 34781 ft | 430 kts | 109° |
| 2026-05-05 22:20 | 51.24944 | 11.71790 | 34782 ft | 431 kts | 109° |
| 2026-05-05 22:21 | 51.23377 | 11.81028 | 34787 ft | 431 kts | 109° |
| 2026-05-05 22:21 | 51.21802 | 11.90268 | 34784 ft | 432 kts | 109° |
| 2026-05-05 22:22 | 51.20236 | 11.99459 | 34771 ft | 433 kts | 110° |
| 2026-05-05 22:22 | 51.18657 | 12.08709 | 34781 ft | 432 kts | 110° |
| 2026-05-05 22:23 | 51.17059 | 12.17947 | 34787 ft | 432 kts | 110° |
| 2026-05-05 22:23 | 51.15458 | 12.27162 | 34809 ft | 431 kts | 110° |
| 2026-05-05 22:24 | 51.13852 | 12.36282 | 34817 ft | 431 kts | 110° |
| 2026-05-05 22:24 | 51.12224 | 12.45453 | 34814 ft | 430 kts | 110° |
| 2026-05-05 22:25 | 51.10594 | 12.54609 | 34824 ft | 430 kts | 110° |
| 2026-05-05 22:25 | 51.08953 | 12.63747 | 34824 ft | 429 kts | 110° |
| 2026-05-05 22:26 | 51.07319 | 12.72813 | 34821 ft | 429 kts | 110° |
| 2026-05-05 22:26 | 51.05673 | 12.81927 | 34818 ft | 429 kts | 110° |
| 2026-05-05 22:27 | 51.04027 | 12.91037 | 34780 ft | 429 kts | 110° |
| 2026-05-05 22:27 | 51.02359 | 13.00165 | 34770 ft | 431 kts | 110° |
| 2026-05-05 22:28 | 51.00673 | 13.09327 | 34770 ft | 433 kts | 110° |
| 2026-05-05 22:28 | 50.98986 | 13.18458 | 34785 ft | 435 kts | 110° |
| 2026-05-05 22:29 | 50.97282 | 13.27670 | 34795 ft | 435 kts | 110° |
| 2026-05-05 22:29 | 50.95576 | 13.36903 | 34769 ft | 437 kts | 110° |
| 2026-05-05 22:30 | 50.93916 | 13.46208 | 34770 ft | 440 kts | 109° |
| 2026-05-05 22:30 | 50.92253 | 13.55498 | 34783 ft | 441 kts | 110° |
| 2026-05-05 22:31 | 50.90499 | 13.64828 | 34788 ft | 442 kts | 111° |
| 2026-05-05 22:31 | 50.88713 | 13.74162 | 34797 ft | 443 kts | 110° |
| 2026-05-05 22:32 | 50.86944 | 13.83503 | 34801 ft | 443 kts | 110° |
| 2026-05-05 22:32 | 50.85186 | 13.92783 | 34799 ft | 443 kts | 110° |
| 2026-05-05 22:33 | 50.83029 | 14.01849 | 34798 ft | 437 kts | 123° |
| 2026-05-05 22:33 | 50.79808 | 14.09947 | 34796 ft | 435 kts | 126° |
| 2026-05-05 22:34 | 50.76547 | 14.18006 | 34782 ft | 435 kts | 126° |
| 2026-05-05 22:34 | 50.73289 | 14.26075 | 34782 ft | 436 kts | 126° |
| 2026-05-05 22:35 | 50.70041 | 14.34080 | 34784 ft | 436 kts | 126° |
| 2026-05-05 22:35 | 50.66759 | 14.42142 | 34787 ft | 437 kts | 127° |
| 2026-05-05 22:36 | 50.63469 | 14.50189 | 34784 ft | 437 kts | 127° |
| 2026-05-05 22:36 | 50.60174 | 14.58233 | 34766 ft | 437 kts | 127° |
| 2026-05-05 22:37 | 50.56887 | 14.66223 | 34754 ft | 438 kts | 127° |
| 2026-05-05 22:37 | 50.53563 | 14.74282 | 34760 ft | 440 kts | 127° |
| 2026-05-05 22:38 | 50.50223 | 14.82342 | 34758 ft | 441 kts | 127° |
| 2026-05-05 22:38 | 50.46875 | 14.90405 | 34784 ft | 441 kts | 127° |
| 2026-05-05 22:39 | 50.43538 | 14.98408 | 34762 ft | 441 kts | 127° |
| 2026-05-05 22:39 | 50.40167 | 15.06464 | 34756 ft | 442 kts | 127° |
| 2026-05-05 22:40 | 50.36785 | 15.14535 | 34754 ft | 444 kts | 127° |
| 2026-05-05 22:40 | 50.33394 | 15.22607 | 34770 ft | 444 kts | 127° |
| 2026-05-05 22:41 | 50.30018 | 15.30630 | 34766 ft | 444 kts | 127° |
| 2026-05-05 22:41 | 50.26613 | 15.38691 | 34752 ft | 445 kts | 127° |
| 2026-05-05 22:42 | 50.23191 | 15.46757 | 34748 ft | 446 kts | 127° |
| 2026-05-05 22:42 | 50.19751 | 15.54814 | 34753 ft | 446 kts | 127° |
| 2026-05-05 22:43 | 50.16334 | 15.62822 | 34759 ft | 447 kts | 127° |
| 2026-05-05 22:43 | 50.12890 | 15.70892 | 34763 ft | 447 kts | 127° |
| 2026-05-05 22:44 | 50.09433 | 15.78938 | 34756 ft | 447 kts | 127° |
| 2026-05-05 22:44 | 50.05968 | 15.86983 | 34764 ft | 447 kts | 127° |
| 2026-05-05 22:45 | 50.02521 | 15.94957 | 34788 ft | 448 kts | 127° |
| 2026-05-05 22:45 | 49.99470 | 16.03439 | 34789 ft | 450 kts | 121° |
| 2026-05-05 22:46 | 49.96561 | 16.12067 | 34797 ft | 450 kts | 121° |
| 2026-05-05 22:46 | 49.93649 | 16.20682 | 34794 ft | 451 kts | 121° |
| 2026-05-05 22:47 | 49.90728 | 16.29298 | 34798 ft | 451 kts | 121° |
| 2026-05-05 22:47 | 49.87810 | 16.37850 | 34813 ft | 452 kts | 121° |
| 2026-05-05 22:48 | 49.84867 | 16.46445 | 34810 ft | 451 kts | 121° |
| 2026-05-05 22:48 | 49.81920 | 16.55025 | 34806 ft | 451 kts | 121° |
| 2026-05-05 22:49 | 49.78963 | 16.63600 | 34812 ft | 452 kts | 121° |
| 2026-05-05 22:49 | 49.76006 | 16.72181 | 34824 ft | 452 kts | 121° |
| 2026-05-05 22:50 | 49.73059 | 16.80684 | 34822 ft | 452 kts | 121° |
| 2026-05-05 22:50 | 49.70082 | 16.89237 | 34829 ft | 452 kts | 121° |
| 2026-05-05 22:51 | 49.67104 | 16.97777 | 34821 ft | 452 kts | 121° |
| 2026-05-05 22:51 | 49.64141 | 17.06247 | 34827 ft | 452 kts | 121° |
| 2026-05-05 22:52 | 49.61143 | 17.14754 | 34831 ft | 451 kts | 121° |
| 2026-05-05 22:52 | 49.58137 | 17.23256 | 34821 ft | 451 kts | 121° |
| 2026-05-05 22:53 | 49.55136 | 17.31746 | 34812 ft | 451 kts | 121° |
| 2026-05-05 22:53 | 49.52129 | 17.40234 | 34817 ft | 452 kts | 121° |
| 2026-05-05 22:54 | 49.49133 | 17.48653 | 34821 ft | 452 kts | 121° |
| 2026-05-05 22:54 | 49.46112 | 17.57115 | 34820 ft | 451 kts | 121° |
| 2026-05-05 22:55 | 49.43083 | 17.65570 | 34831 ft | 451 kts | 121° |
| 2026-05-05 22:55 | 49.40051 | 17.74012 | 34843 ft | 452 kts | 121° |
| 2026-05-05 22:56 | 49.37035 | 17.82392 | 34846 ft | 451 kts | 121° |
| 2026-05-05 22:56 | 49.33987 | 17.90810 | 34847 ft | 451 kts | 121° |
| 2026-05-05 22:57 | 49.30927 | 17.99218 | 34848 ft | 452 kts | 121° |
| 2026-05-05 22:57 | 49.27865 | 18.07623 | 34843 ft | 452 kts | 121° |
| 2026-05-05 22:58 | 49.24819 | 18.15975 | 34844 ft | 453 kts | 122° |
| 2026-05-05 22:58 | 49.21620 | 18.24281 | 34849 ft | 453 kts | 122° |
| 2026-05-05 22:59 | 49.18275 | 18.32449 | 34860 ft | 453 kts | 124° |
| 2026-05-05 22:59 | 49.14921 | 18.40604 | 34869 ft | 453 kts | 124° |
| 2026-05-05 23:00 | 49.09959 | 18.52827 | 34882 ft | 454 kts | 124° |
| 2026-05-05 23:00 | 49.06645 | 18.61026 | 34876 ft | 454 kts | 123° |
| 2026-05-05 23:01 | 49.03310 | 18.69210 | 34888 ft | 454 kts | 123° |
| 2026-05-05 23:01 | 48.99961 | 18.77380 | 34884 ft | 455 kts | 124° |
| 2026-05-05 23:02 | 48.96630 | 18.85484 | 34888 ft | 455 kts | 123° |
| 2026-05-05 23:02 | 48.93273 | 18.93637 | 34905 ft | 455 kts | 124° |
| 2026-05-05 23:03 | 48.89910 | 19.01779 | 34909 ft | 455 kts | 124° |
| 2026-05-05 23:03 | 48.86540 | 19.09910 | 34918 ft | 455 kts | 124° |
| 2026-05-05 23:04 | 48.83190 | 19.17989 | 34910 ft | 455 kts | 123° |
| 2026-05-05 23:04 | 48.79801 | 19.26133 | 34900 ft | 458 kts | 124° |
| 2026-05-05 23:05 | 48.76387 | 19.34285 | 34926 ft | 458 kts | 123° |
| 2026-05-05 23:05 | 48.72976 | 19.42413 | 34952 ft | 456 kts | 123° |
| 2026-05-05 23:06 | 48.69593 | 19.50452 | 34949 ft | 455 kts | 123° |
| 2026-05-05 23:06 | 48.66193 | 19.58519 | 34949 ft | 455 kts | 123° |
| 2026-05-05 23:07 | 48.62789 | 19.66573 | 34948 ft | 454 kts | 124° |
| 2026-05-05 23:07 | 48.59375 | 19.74606 | 34949 ft | 454 kts | 124° |
| 2026-05-05 23:08 | 48.55980 | 19.82568 | 34950 ft | 454 kts | 124° |
| 2026-05-05 23:08 | 48.52563 | 19.90573 | 34941 ft | 454 kts | 124° |
| 2026-05-05 23:09 | 48.49147 | 19.98563 | 34944 ft | 453 kts | 124° |
| 2026-05-05 23:09 | 48.45726 | 20.06540 | 34943 ft | 453 kts | 124° |
| 2026-05-05 23:10 | 48.42317 | 20.14444 | 34938 ft | 453 kts | 124° |
| 2026-05-05 23:10 | 48.38883 | 20.22398 | 34933 ft | 453 kts | 124° |
| 2026-05-05 23:11 | 48.35442 | 20.30354 | 34932 ft | 453 kts | 124° |
| 2026-05-05 23:11 | 48.31988 | 20.38288 | 34937 ft | 454 kts | 124° |
| 2026-05-05 23:12 | 48.28615 | 20.46222 | 34940 ft | 454 kts | 123° |
| 2026-05-05 23:12 | 48.25268 | 20.54266 | 34943 ft | 454 kts | 123° |
| 2026-05-05 23:13 | 48.21907 | 20.62290 | 34941 ft | 454 kts | 123° |
| 2026-05-05 23:13 | 48.18523 | 20.70288 | 34941 ft | 454 kts | 123° |
| 2026-05-05 23:14 | 48.15147 | 20.78216 | 34942 ft | 454 kts | 123° |
| 2026-05-05 23:14 | 48.11748 | 20.86186 | 34943 ft | 454 kts | 123° |
| 2026-05-05 23:15 | 48.08348 | 20.94157 | 34936 ft | 454 kts | 123° |
| 2026-05-05 23:15 | 48.04943 | 21.02119 | 34936 ft | 454 kts | 123° |
| 2026-05-05 23:16 | 48.02100 | 21.08729 | 34910 ft | 457 kts | 123° |
| 2026-05-05 23:16 | 47.98085 | 21.18033 | 34902 ft | 460 kts | 123° |
| 2026-05-05 23:17 | 47.94598 | 21.26084 | 34907 ft | 463 kts | 123° |
| 2026-05-05 23:17 | 47.91098 | 21.34153 | 34915 ft | 464 kts | 123° |
| 2026-05-05 23:18 | 47.88185 | 21.40875 | 34921 ft | 465 kts | 123° |
| 2026-05-05 23:18 | 47.84092 | 21.50263 | 34932 ft | 465 kts | 124° |
| 2026-05-05 23:19 | 47.80558 | 21.58339 | 34945 ft | 466 kts | 123° |
| 2026-05-05 23:19 | 47.77620 | 21.65050 | 34949 ft | 466 kts | 123° |
| 2026-05-05 23:20 | 47.74077 | 21.73129 | 34957 ft | 467 kts | 123° |
| 2026-05-05 23:20 | 47.69941 | 21.82512 | 34961 ft | 467 kts | 124° |
| 2026-05-05 23:21 | 47.66950 | 21.89260 | 34963 ft | 467 kts | 124° |
| 2026-05-05 23:21 | 47.63395 | 21.97246 | 34963 ft | 467 kts | 124° |
| 2026-05-05 23:22 | 47.59819 | 22.05284 | 34968 ft | 467 kts | 124° |
| 2026-05-05 23:22 | 47.56094 | 22.13139 | 34958 ft | 466 kts | 130° |
| 2026-05-05 23:23 | 47.51997 | 22.20572 | 34958 ft | 466 kts | 130° |
| 2026-05-05 23:23 | 47.47898 | 22.28003 | 34961 ft | 466 kts | 130° |
| 2026-05-05 23:24 | 47.43820 | 22.35376 | 34969 ft | 466 kts | 130° |
| 2026-05-05 23:24 | 47.39712 | 22.42799 | 34976 ft | 467 kts | 130° |
| 2026-05-05 23:25 | 47.35598 | 22.50217 | 34985 ft | 467 kts | 130° |
| 2026-05-05 23:25 | 47.31472 | 22.57610 | 34987 ft | 467 kts | 130° |
| 2026-05-05 23:26 | 47.27372 | 22.64938 | 34994 ft | 467 kts | 130° |
| 2026-05-05 23:26 | 47.23247 | 22.72301 | 34995 ft | 466 kts | 130° |
| 2026-05-05 23:27 | 47.19118 | 22.79658 | 34998 ft | 466 kts | 130° |
| 2026-05-05 23:27 | 47.14986 | 22.87000 | 35011 ft | 466 kts | 130° |
| 2026-05-05 23:28 | 47.10842 | 22.94330 | 35010 ft | 466 kts | 130° |
| 2026-05-05 23:28 | 47.06726 | 23.01604 | 35016 ft | 466 kts | 130° |
| 2026-05-05 23:29 | 47.02576 | 23.08916 | 35020 ft | 467 kts | 130° |
| 2026-05-05 23:29 | 46.98418 | 23.16219 | 35022 ft | 467 kts | 130° |
| 2026-05-05 23:30 | 46.94251 | 23.23515 | 35018 ft | 467 kts | 130° |
| 2026-05-05 23:30 | 46.90104 | 23.30761 | 35024 ft | 468 kts | 130° |
| 2026-05-05 23:31 | 46.85922 | 23.38051 | 35025 ft | 468 kts | 130° |
| 2026-05-05 23:31 | 46.81736 | 23.45326 | 35016 ft | 468 kts | 130° |
| 2026-05-05 23:32 | 46.77540 | 23.52597 | 35012 ft | 469 kts | 130° |
| 2026-05-05 23:32 | 46.73332 | 23.59858 | 35011 ft | 469 kts | 130° |
| 2026-05-05 23:33 | 46.69148 | 23.67066 | 35014 ft | 469 kts | 130° |
| 2026-05-05 23:33 | 46.64934 | 23.74330 | 35018 ft | 469 kts | 129° |
| 2026-05-05 23:34 | 46.60705 | 23.81574 | 35017 ft | 470 kts | 130° |
| 2026-05-05 23:34 | 46.56474 | 23.88816 | 35016 ft | 470 kts | 130° |
| 2026-05-05 23:35 | 46.52261 | 23.96005 | 35016 ft | 470 kts | 130° |
| 2026-05-05 23:35 | 46.48013 | 24.03233 | 35017 ft | 471 kts | 130° |
| 2026-05-05 23:36 | 46.43760 | 24.10454 | 35014 ft | 471 kts | 130° |
| 2026-05-05 23:36 | 46.39495 | 24.17673 | 35019 ft | 472 kts | 130° |
| 2026-05-05 23:37 | 46.35246 | 24.24835 | 35021 ft | 472 kts | 130° |
| 2026-05-05 23:37 | 46.30969 | 24.32044 | 35024 ft | 472 kts | 130° |
| 2026-05-05 23:38 | 46.26684 | 24.39237 | 35027 ft | 472 kts | 130° |
| 2026-05-05 23:38 | 46.22395 | 24.46423 | 35022 ft | 472 kts | 130° |
| 2026-05-05 23:39 | 46.18135 | 24.53561 | 35023 ft | 472 kts | 130° |
| 2026-05-05 23:39 | 46.13833 | 24.60722 | 35037 ft | 472 kts | 130° |
| 2026-05-05 23:40 | 46.09522 | 24.67877 | 35031 ft | 473 kts | 130° |
| 2026-05-05 23:40 | 46.05204 | 24.75027 | 35024 ft | 473 kts | 130° |
| 2026-05-05 23:41 | 46.00909 | 24.82124 | 35023 ft | 473 kts | 130° |
| 2026-05-05 23:41 | 45.96585 | 24.89263 | 35039 ft | 473 kts | 129° |
| 2026-05-05 23:42 | 45.92258 | 24.96397 | 35039 ft | 474 kts | 129° |
| 2026-05-05 23:42 | 45.87923 | 25.03513 | 35035 ft | 474 kts | 130° |
| 2026-05-05 23:43 | 45.83605 | 25.10567 | 35038 ft | 474 kts | 130° |
| 2026-05-05 23:43 | 45.79250 | 25.17654 | 35052 ft | 474 kts | 130° |
| 2026-05-05 23:44 | 45.74894 | 25.24739 | 35046 ft | 474 kts | 129° |
| 2026-05-05 23:44 | 45.70536 | 25.31821 | 35046 ft | 474 kts | 130° |
| 2026-05-05 23:45 | 45.66178 | 25.38886 | 35057 ft | 474 kts | 130° |
| 2026-05-05 23:45 | 45.61842 | 25.45897 | 35069 ft | 474 kts | 130° |
| 2026-05-05 23:46 | 45.57473 | 25.52934 | 35067 ft | 474 kts | 130° |
| 2026-05-05 23:46 | 45.53100 | 25.59968 | 34678 ft | 476 kts | 129° |
| 2026-05-05 23:47 | 45.50921 | 25.63470 | 34410 ft | 468 kts | 129° |
| 2026-05-05 23:47 | 45.48771 | 25.66920 | 34173 ft | 464 kts | 129° |
| 2026-05-05 23:47 | 45.46657 | 25.70307 | 33790 ft | 464 kts | 129° |
| 2026-05-05 23:47 | 45.44493 | 25.73768 | 32796 ft | 471 kts | 129° |
| 2026-05-05 23:48 | 45.42327 | 25.77221 | 32384 ft | 465 kts | 129° |
| 2026-05-05 23:48 | 45.40177 | 25.80636 | 31809 ft | 462 kts | 129° |
| 2026-05-05 23:48 | 45.38040 | 25.84030 | 31266 ft | 459 kts | 129° |
| 2026-05-05 23:48 | 45.35916 | 25.87400 | 30716 ft | 456 kts | 129° |
| 2026-05-05 23:49 | 45.33805 | 25.90750 | 30168 ft | 454 kts | 129° |
| 2026-05-05 23:49 | 45.31707 | 25.94083 | 29559 ft | 451 kts | 129° |
| 2026-05-05 23:49 | 45.29629 | 25.97383 | 29037 ft | 445 kts | 129° |
| 2026-05-05 23:49 | 45.27599 | 26.00603 | 28506 ft | 441 kts | 129° |
| 2026-05-05 23:50 | 45.25560 | 26.03829 | 27962 ft | 437 kts | 129° |
| 2026-05-05 23:50 | 45.23540 | 26.07017 | 27447 ft | 432 kts | 129° |
| 2026-05-05 23:50 | 45.21538 | 26.10172 | 26930 ft | 428 kts | 129° |
| 2026-05-05 23:50 | 45.19551 | 26.13300 | 26423 ft | 425 kts | 129° |
| 2026-05-05 23:51 | 45.17583 | 26.16396 | 25932 ft | 421 kts | 129° |
| 2026-05-05 23:51 | 45.15631 | 26.19465 | 25457 ft | 417 kts | 130° |
| 2026-05-05 23:51 | 45.13697 | 26.22504 | 24994 ft | 414 kts | 130° |
| 2026-05-05 23:51 | 45.11774 | 26.25522 | 24544 ft | 411 kts | 130° |
| 2026-05-05 23:52 | 45.09887 | 26.28475 | 24085 ft | 409 kts | 130° |
| 2026-05-05 23:52 | 45.07983 | 26.31456 | 23635 ft | 407 kts | 130° |
| 2026-05-05 23:52 | 45.06087 | 26.34418 | 23140 ft | 405 kts | 130° |
| 2026-05-05 23:52 | 45.04205 | 26.37354 | 22690 ft | 401 kts | 130° |
| 2026-05-05 23:53 | 45.02228 | 26.40114 | 22239 ft | 399 kts | 139° |
| 2026-05-05 23:53 | 44.99920 | 26.42261 | 21777 ft | 397 kts | 152° |
| 2026-05-05 23:53 | 44.97365 | 26.43696 | 21308 ft | 395 kts | 163° |
| 2026-05-05 23:53 | 44.94667 | 26.44369 | 20822 ft | 394 kts | 174° |
| 2026-05-05 23:54 | 44.91985 | 26.44731 | 20329 ft | 391 kts | 174° |
| 2026-05-05 23:54 | 44.89281 | 26.45109 | 19821 ft | 390 kts | 173° |
| 2026-05-05 23:54 | 44.86590 | 26.45495 | 19318 ft | 388 kts | 173° |
| 2026-05-05 23:54 | 44.83913 | 26.45881 | 18802 ft | 386 kts | 173° |
| 2026-05-05 23:55 | 44.81258 | 26.46265 | 18290 ft | 379 kts | 173° |
| 2026-05-05 23:55 | 44.78676 | 26.46638 | 17760 ft | 368 kts | 173° |
| 2026-05-05 23:55 | 44.76139 | 26.47002 | 17271 ft | 365 kts | 173° |
| 2026-05-05 23:55 | 44.73616 | 26.46890 | 16795 ft | 363 kts | 192° |
| 2026-05-05 23:56 | 44.71305 | 26.45555 | 16316 ft | 359 kts | 214° |
| 2026-05-05 23:56 | 44.69538 | 26.43200 | 15856 ft | 354 kts | 236° |
| 2026-05-05 23:56 | 44.68482 | 26.40131 | 15387 ft | 347 kts | 258° |
| 2026-05-05 23:56 | 44.68138 | 26.36819 | 14935 ft | 342 kts | 267° |
| 2026-05-05 23:57 | 44.67903 | 26.33499 | 14478 ft | 341 kts | 267° |
| 2026-05-05 23:57 | 44.67670 | 26.30192 | 14025 ft | 339 kts | 267° |
| 2026-05-05 23:57 | 44.67434 | 26.26897 | 13533 ft | 339 kts | 266° |
| 2026-05-05 23:57 | 44.67195 | 26.23616 | 13076 ft | 336 kts | 266° |
| 2026-05-05 23:58 | 44.66955 | 26.20427 | 12854 ft | 316 kts | 266° |
| 2026-05-05 23:58 | 44.66722 | 26.17430 | 12445 ft | 303 kts | 266° |
| 2026-05-05 23:58 | 44.66502 | 26.14566 | 12196 ft | 297 kts | 266° |
| 2026-05-05 23:58 | 44.66286 | 26.11697 | 11939 ft | 295 kts | 266° |
| 2026-05-05 23:59 | 44.66073 | 26.08841 | 11679 ft | 292 kts | 266° |
| 2026-05-05 23:59 | 44.65861 | 26.06032 | 11434 ft | 287 kts | 266° |
| 2026-05-05 23:59 | 44.65653 | 26.03272 | 11186 ft | 282 kts | 266° |
| 2026-05-05 23:59 | 44.65447 | 26.00558 | 10915 ft | 278 kts | 266° |
| 2026-05-06 00:00 | 44.65240 | 25.97869 | 10545 ft | 274 kts | 266° |
| 2026-05-06 00:00 | 44.65034 | 25.95238 | 10171 ft | 269 kts | 266° |
| 2026-05-06 00:00 | 44.64834 | 25.92674 | 9784 ft | 266 kts | 266° |
| 2026-05-06 00:00 | 44.64634 | 25.90108 | 9394 ft | 265 kts | 266° |
| 2026-05-06 00:01 | 44.64434 | 25.87532 | 9016 ft | 265 kts | 266° |
| 2026-05-06 00:01 | 44.64234 | 25.84965 | 8733 ft | 262 kts | 266° |
| 2026-05-06 00:01 | 44.64038 | 25.82452 | 8297 ft | 253 kts | 266° |
| 2026-05-06 00:01 | 44.63851 | 25.80056 | 7944 ft | 243 kts | 266° |
| 2026-05-06 00:02 | 44.63668 | 25.77714 | 7514 ft | 240 kts | 265° |
| 2026-05-06 00:02 | 44.63488 | 25.75410 | 7156 ft | 234 kts | 265° |
| 2026-05-06 00:02 | 44.63284 | 25.73195 | 6872 ft | 226 kts | 259° |
| 2026-05-06 00:02 | 44.62582 | 25.71261 | 6482 ft | 228 kts | 231° |
| 2026-05-06 00:03 | 44.61317 | 25.70004 | 6260 ft | 222 kts | 205° |
| 2026-05-06 00:03 | 44.59792 | 25.69683 | 5891 ft | 225 kts | 178° |
| 2026-05-06 00:03 | 44.58237 | 25.69928 | 5545 ft | 224 kts | 176° |
| 2026-05-06 00:03 | 44.56706 | 25.70440 | 5040 ft | 232 kts | 158° |
| 2026-05-06 00:04 | 44.55364 | 25.71711 | 4698 ft | 233 kts | 136° |
| 2026-05-06 00:04 | 44.54457 | 25.73529 | 4497 ft | 225 kts | 115° |
| 2026-05-06 00:04 | 44.54060 | 25.75600 | 4283 ft | 218 kts | 95° |
| 2026-05-06 00:04 | 44.54132 | 25.77688 | 4046 ft | 213 kts | 84° |
| 2026-05-06 00:05 | 44.54455 | 25.81732 | 3566 ft | 205 kts | 84° |
| 2026-05-06 00:05 | 44.54609 | 25.83687 | 3346 ft | 200 kts | 85° |
| 2026-05-06 00:05 | 44.54758 | 25.85588 | 3093 ft | 191 kts | 85° |
| 2026-05-06 00:06 | 44.54900 | 25.87401 | 2865 ft | 182 kts | 85° |
| 2026-05-06 00:06 | 44.55035 | 25.89126 | 2668 ft | 173 kts | 86° |
| 2026-05-06 00:06 | 44.55162 | 25.90747 | 2463 ft | 164 kts | 86° |
| 2026-05-06 00:06 | 44.55283 | 25.92315 | 2268 ft | 160 kts | 86° |
| 2026-05-06 00:07 | 44.55401 | 25.93839 | 2083 ft | 159 kts | 87° |
| 2026-05-06 00:07 | 44.55520 | 25.95368 | 1891 ft | 157 kts | 86° |
| 2026-05-06 00:07 | 44.55636 | 25.96877 | 1712 ft | 155 kts | 86° |
| 2026-05-06 00:07 | 44.55752 | 25.98370 | 1515 ft | 154 kts | 86° |
| 2026-05-06 00:08 | 44.55869 | 25.99856 | 1354 ft | 153 kts | 86° |
| 2026-05-06 00:08 | 44.55987 | 26.01339 | 1146 ft | 152 kts | 85° |
| 2026-05-06 00:08 | 44.56091 | 26.02799 | 1012 ft | 151 kts | 84° |
| 2026-05-06 00:08 | 44.56204 | 26.04247 | 814 ft | 149 kts | 83° |
| 2026-05-06 00:09 | 44.56311 | 26.05656 | 636 ft | 147 kts | 83° |
| 2026-05-06 00:09 | 44.56420 | 26.07072 | 449 ft | 145 kts | 83° |
| 2026-05-06 00:09 | 44.56526 | 26.08453 | 324 ft | 133 kts | 84° |
| 2026-05-06 00:09 | 44.56597 | 26.09403 | 319 ft | 56 kts | 84° |
| 2026-05-06 00:10 | 44.56638 | 26.09928 | 322 ft | 56 kts | 85° |
| 2026-05-06 00:10 | 44.56680 | 26.10496 | 321 ft | 59 kts | 84° |
| 2026-05-06 00:10 | 44.56743 | 26.10765 | 321 ft | 17 kts | 10° |
| 2026-05-06 00:10 | 44.56855 | 26.10753 | 321 ft | 14 kts | 353° |
| 2026-05-06 00:11 | 44.56922 | 26.10741 | 321 ft | 9 kts | 352° |
| 2026-05-06 00:11 | 44.56986 | 26.10716 | 321 ft | 11 kts | 329° |
| 2026-05-06 00:11 | 44.57036 | 26.10630 | 321 ft | 13 kts | 299° |
| 2026-05-06 00:11 | 44.57067 | 26.10511 | 321 ft | 13 kts | 274° |
| 2026-05-06 00:12 | 44.57060 | 26.10376 | 321 ft | 15 kts | 263° |
| 2026-05-06 00:12 | 44.57048 | 26.10222 | 321 ft | 17 kts | 264° |
| 2026-05-06 00:12 | 44.57035 | 26.10049 | 321 ft | 19 kts | 264° |
| 2026-05-06 00:12 | 44.57021 | 26.09868 | 321 ft | 18 kts | 264° |
| 2026-05-06 00:13 | 44.57008 | 26.09704 | 321 ft | 11 kts | 264° |
| 2026-05-06 00:13 | 44.56999 | 26.09588 | 321 ft | 13 kts | 264° |
| 2026-05-06 00:13 | 44.56992 | 26.09499 | 321 ft | 5 kts | 264° |
| 2026-05-06 00:13 | 44.56984 | 26.09473 | 321 ft | 1 kts | 222° |
| 2026-05-06 00:14 | 44.56960 | 26.09470 | 321 ft | 5 kts | 180° |
| 2026-05-06 00:14 | 44.56945 | 26.09471 | 321 ft | 1 kts | 176° |
| 2026-05-06 00:14 | 44.56934 | 26.09472 | 321 ft | 1 kts | 175° |
| 2026-05-06 00:14 | 44.56929 | 26.09473 | 321 ft | 1 kts | 174° |